createdAt,value
2023-04-15T00:01:45.246Z,2.77
2023-04-15T00:04:13.076Z,5.33
2023-04-15T00:06:42.225Z,4.87
2023-04-15T00:09:09.832Z,2.37
2023-04-15T00:11:37.520Z,3.17
2023-04-15T00:14:06.204Z,3.27
2023-04-15T00:16:33.873Z,4.60
2023-04-15T00:19:01.596Z,4.70
2023-04-15T00:21:29.472Z,3.73
2023-04-15T00:23:58.396Z,3.93
2023-04-15T00:26:26.308Z,6.37
2023-04-15T00:28:54.027Z,4.77
2023-04-15T00:31:24.617Z,3.73
2023-04-15T00:33:52.409Z,4.30
2023-04-15T00:36:20.057Z,5.33
2023-04-15T00:38:48.270Z,5.40
2023-04-15T00:41:17.828Z,5.37
2023-04-15T00:43:45.449Z,5.07
2023-04-15T00:46:14.262Z,3.23
2023-04-15T00:48:42.473Z,4.20
2023-04-15T00:51:10.646Z,5.47
2023-04-15T00:53:38.273Z,4.13
2023-04-15T00:56:06.768Z,3.97
2023-04-15T00:58:37.243Z,4.60
2023-04-15T01:01:05.487Z,3.10
2023-04-15T01:03:33.204Z,3.47
2023-04-15T01:06:04.034Z,3.83
2023-04-15T01:08:32.325Z,4.57
2023-04-15T01:11:00.329Z,4.20
2023-04-15T01:13:28.090Z,3.33
2023-04-15T01:15:58.102Z,2.53
2023-04-15T01:18:25.802Z,3.83
2023-04-15T01:20:53.939Z,5.00
2023-04-15T01:23:23.542Z,3.13
2023-04-15T01:25:52.657Z,5.77
2023-04-15T01:28:20.429Z,3.50
2023-04-15T01:30:48.438Z,3.03
2023-04-15T01:33:16.031Z,3.47
2023-04-15T01:35:44.224Z,3.53
2023-04-15T01:38:13.561Z,3.83
2023-04-15T01:40:41.526Z,4.00
2023-04-15T01:43:10.720Z,3.33
2023-04-15T01:45:38.281Z,7.00
2023-04-15T01:48:07.117Z,4.13
2023-04-15T01:50:36.784Z,4.00
2023-04-15T01:53:04.674Z,3.70
2023-04-15T01:55:32.534Z,3.90
2023-04-15T01:58:00.142Z,3.63
2023-04-15T02:00:29.319Z,3.43
2023-04-15T02:02:57.044Z,5.37
2023-04-15T02:05:25.229Z,2.87
2023-04-15T02:07:53.863Z,4.40
2023-04-15T02:10:21.770Z,5.00
2023-04-15T02:12:49.346Z,6.43
2023-04-15T02:15:17.462Z,4.87
2023-04-15T02:17:50.972Z,3.13
2023-04-15T02:20:21.064Z,5.67
2023-04-15T02:22:49.278Z,2.57
2023-04-15T02:25:18.211Z,3.90
2023-04-15T02:27:45.788Z,5.07
2023-04-15T02:30:13.576Z,4.10
2023-04-15T02:32:43.748Z,12.67
2023-04-15T02:35:13.261Z,3.90
2023-04-15T02:37:43.898Z,5.23
2023-04-15T02:40:13.254Z,4.83
2023-04-15T02:42:41.042Z,4.00
2023-04-15T02:45:09.871Z,6.50
2023-04-15T02:47:38.057Z,4.10
2023-04-15T02:50:07.114Z,2.60
2023-04-15T02:52:36.199Z,3.33
2023-04-15T02:55:05.152Z,2.50
2023-04-15T02:57:32.942Z,3.37
2023-04-15T03:00:00.743Z,4.40
2023-04-15T03:02:28.609Z,3.67
2023-04-15T03:04:56.614Z,4.80
2023-04-15T03:07:24.456Z,6.07
2023-04-15T03:09:53.422Z,3.57
2023-04-15T03:12:21.181Z,4.80
2023-04-15T03:14:48.773Z,3.43
2023-04-15T03:17:16.533Z,3.20
2023-04-15T03:19:45.280Z,6.67
2023-04-15T03:22:12.876Z,5.17
2023-04-15T03:24:40.676Z,3.00
2023-04-15T03:27:09.915Z,5.47
2023-04-15T03:29:37.561Z,3.73
2023-04-15T03:32:05.728Z,3.43
2023-04-15T03:34:33.420Z,5.17
2023-04-15T03:37:01.022Z,5.43
2023-04-15T03:39:28.583Z,5.13
2023-04-15T03:41:56.457Z,6.67
2023-04-15T03:44:25.529Z,5.83
2023-04-15T03:46:53.329Z,6.17
2023-04-15T03:49:22.934Z,3.30
2023-04-15T03:51:50.649Z,3.23
2023-04-15T03:54:18.424Z,5.73
2023-04-15T03:56:46.053Z,5.03
2023-04-15T03:59:13.984Z,5.13
2023-04-15T04:01:43.084Z,4.57
2023-04-15T04:04:10.748Z,4.90
2023-04-15T04:06:38.658Z,5.17
2023-04-15T04:09:06.383Z,3.63
2023-04-15T04:11:34.137Z,3.43
2023-04-15T04:14:02.100Z,7.43
2023-04-15T04:16:29.973Z,3.27
2023-04-15T04:18:59.232Z,9.03
2023-04-15T04:21:27.527Z,3.10
2023-04-15T04:23:55.153Z,5.17
2023-04-15T04:26:22.930Z,3.83
2023-04-15T04:28:50.761Z,4.60
2023-04-15T04:31:18.411Z,4.90
2023-04-15T04:33:46.455Z,4.53
2023-04-15T04:36:15.538Z,5.77
2023-04-15T04:38:43.150Z,6.87
2023-04-15T04:41:10.873Z,5.07
2023-04-15T04:43:38.798Z,5.53
2023-04-15T04:46:06.597Z,6.07
2023-04-15T04:48:34.357Z,4.37
2023-04-15T04:51:01.933Z,4.30
2023-04-15T04:53:31.061Z,5.63
2023-04-15T04:55:58.645Z,4.40
2023-04-15T04:58:26.309Z,4.83
2023-04-15T05:00:54.020Z,6.73
2023-04-15T05:03:21.943Z,5.10
2023-04-15T05:05:50.174Z,5.23
2023-04-15T05:08:17.834Z,3.87
2023-04-15T05:10:48.496Z,4.63
2023-04-15T05:13:16.429Z,3.40
2023-04-15T05:15:44.832Z,6.10
2023-04-15T05:18:12.392Z,4.40
2023-04-15T05:20:40.353Z,3.77
2023-04-15T05:23:07.945Z,4.13
2023-04-15T05:25:35.618Z,4.77
2023-04-15T05:28:04.784Z,5.20
2023-04-15T05:30:32.392Z,7.50
2023-04-15T05:33:00.135Z,5.60
2023-04-15T05:35:27.948Z,6.33
2023-04-15T05:37:55.839Z,5.13
2023-04-15T05:40:23.473Z,3.03
2023-04-15T05:42:51.336Z,4.43
2023-04-15T05:45:20.461Z,3.47
2023-04-15T05:47:50.582Z,3.03
2023-04-15T05:50:18.491Z,4.17
2023-04-15T05:52:46.316Z,3.53
2023-04-15T05:55:14.274Z,3.87
2023-04-15T05:57:41.908Z,6.43
2023-04-15T06:00:10.887Z,5.70
2023-04-15T06:02:39.915Z,2.70
2023-04-15T06:05:09.729Z,4.70
2023-04-15T06:07:37.760Z,4.27
2023-04-15T06:10:06.470Z,3.77
2023-04-15T06:12:34.140Z,3.53
2023-04-15T06:15:01.758Z,3.90
2023-04-15T06:17:29.531Z,7.97
2023-04-15T06:19:58.692Z,3.57
2023-04-15T06:22:26.510Z,2.53
2023-04-15T06:24:54.128Z,2.90
2023-04-15T06:27:22.986Z,4.23
2023-04-15T06:29:50.675Z,4.63
2023-04-15T06:32:18.296Z,5.97
2023-04-15T06:34:45.873Z,5.93
2023-04-15T06:37:16.313Z,5.00
2023-04-15T06:39:44.585Z,4.23
2023-04-15T06:42:12.360Z,2.33
2023-04-15T06:44:40.204Z,4.47
2023-04-15T06:47:09.086Z,4.07
2023-04-15T06:49:36.701Z,4.87
2023-04-15T06:52:05.400Z,3.60
2023-04-15T06:54:34.360Z,4.53
2023-04-15T06:57:01.972Z,7.00
2023-04-15T06:59:29.724Z,3.47
2023-04-15T07:01:57.470Z,5.53
2023-04-15T07:04:25.672Z,3.47
2023-04-15T07:06:53.961Z,3.37
2023-04-15T07:09:21.651Z,3.90
2023-04-15T07:11:51.416Z,5.43
2023-04-15T07:14:19.354Z,5.23
2023-04-15T07:16:47.199Z,5.87
2023-04-15T07:19:15.119Z,3.93
2023-04-15T07:21:42.857Z,5.10
2023-04-15T07:24:11.126Z,5.67
2023-04-15T07:26:38.823Z,7.07
2023-04-15T07:29:07.906Z,6.17
2023-04-15T07:31:36.723Z,4.63
2023-04-15T07:34:04.774Z,7.10
2023-04-15T07:36:32.336Z,11.40
2023-04-15T07:39:02.097Z,6.30
2023-04-15T07:41:30.033Z,4.93
2023-04-15T07:43:57.627Z,9.20
2023-04-15T07:46:27.293Z,4.30
2023-04-15T07:48:54.980Z,6.17
2023-04-15T07:51:22.607Z,3.90
2023-04-15T07:53:50.592Z,4.57
2023-04-15T07:56:18.262Z,5.60
2023-04-15T07:58:46.054Z,7.20
2023-04-15T08:01:13.722Z,6.77
2023-04-15T08:03:43.185Z,6.77
2023-04-15T08:06:10.906Z,5.27
2023-04-15T08:08:38.559Z,5.37
2023-04-15T08:11:06.385Z,4.90
2023-04-15T08:13:33.988Z,4.33
2023-04-15T08:16:19.828Z,9.47
2023-04-15T08:18:49.401Z,10.27
2023-04-15T08:21:17.601Z,5.03
2023-04-15T08:23:45.829Z,4.43
2023-04-15T08:26:14.305Z,2.43
2023-04-15T08:28:42.849Z,4.43
2023-04-15T08:31:10.524Z,3.40
2023-04-15T08:33:38.203Z,4.73
2023-04-15T08:36:07.894Z,7.37
2023-04-15T08:38:36.180Z,5.03
2023-04-15T08:41:05.746Z,4.80
2023-04-15T08:43:35.522Z,3.20
2023-04-15T08:46:03.617Z,4.80
2023-04-15T08:48:33.877Z,5.43
2023-04-15T08:51:02.330Z,7.50
2023-04-15T08:53:31.748Z,4.50
2023-04-15T08:56:01.584Z,5.77
2023-04-15T08:58:29.602Z,4.23
2023-04-15T09:00:57.874Z,4.93
2023-04-15T09:03:25.677Z,4.53
2023-04-15T09:05:53.412Z,5.70
2023-04-15T09:08:21.041Z,8.70
2023-04-15T09:10:50.025Z,4.33
2023-04-15T09:13:17.606Z,6.70
2023-04-15T09:15:45.197Z,5.77
2023-04-15T09:18:13.028Z,5.33
2023-04-15T09:20:41.936Z,4.57
2023-04-15T09:23:17.499Z,4.80
2023-04-15T09:25:45.122Z,6.47
2023-04-15T09:28:14.050Z,3.10
2023-04-15T09:30:46.073Z,4.27
2023-04-15T09:33:15.844Z,7.30
2023-04-15T09:35:43.396Z,6.77
2023-04-15T09:38:11.338Z,6.60
2023-04-15T09:40:40.153Z,5.17
2023-04-15T09:43:09.047Z,4.60
2023-04-15T09:45:38.132Z,5.53
2023-04-15T09:48:17.849Z,4.77
2023-04-15T09:50:45.812Z,5.13
2023-04-15T09:53:17.866Z,4.40
2023-04-15T09:55:46.809Z,4.03
2023-04-15T09:58:21.448Z,4.87
2023-04-15T10:00:52.299Z,4.67
2023-04-15T10:03:22.664Z,4.53
2023-04-15T10:05:51.674Z,4.90
2023-04-15T10:08:21.286Z,4.57
2023-04-15T10:10:49.787Z,3.03
2023-04-15T10:13:19.214Z,3.53
2023-04-15T10:15:51.689Z,3.90
2023-04-15T10:18:21.576Z,3.27
2023-04-15T10:20:49.826Z,2.97
2023-04-15T10:23:18.753Z,2.90
2023-04-15T10:25:47.230Z,7.00
2023-04-15T10:28:16.884Z,2.87
2023-04-15T10:30:44.914Z,1.30
2023-04-15T10:33:14.261Z,2.77
2023-04-15T10:35:41.942Z,3.13
2023-04-15T10:38:33.898Z,2.73
2023-04-15T10:41:17.089Z,3.80
2023-04-15T10:43:53.415Z,2.20
2023-04-15T10:46:24.465Z,1.90
2023-04-15T10:48:55.042Z,4.60
2023-04-15T10:51:30.767Z,2.67
2023-04-15T10:54:00.860Z,3.17
2023-04-15T10:56:29.948Z,3.63
2023-04-15T10:59:00.257Z,2.23
2023-04-15T11:01:51.825Z,4.20
2023-04-15T11:04:54.605Z,2.80
2023-04-15T11:07:38.811Z,3.60
2023-04-15T11:10:54.538Z,3.30
2023-04-15T11:13:25.809Z,3.53
2023-04-15T11:15:58.281Z,4.03
2023-04-15T11:18:28.302Z,2.60
2023-04-15T11:20:59.180Z,2.27
2023-04-15T11:23:32.210Z,2.83
2023-04-15T11:26:00.514Z,2.33
2023-04-15T11:28:29.030Z,4.83
2023-04-15T11:30:57.107Z,2.93
2023-04-15T11:33:25.273Z,1.70
2023-04-15T11:35:54.970Z,1.70
2023-04-15T11:38:24.068Z,2.73
2023-04-15T11:40:52.566Z,4.30
2023-04-15T11:43:21.736Z,2.73
2023-04-15T11:45:52.837Z,3.90
2023-04-15T11:48:21.303Z,3.97
2023-04-15T11:50:54.332Z,3.30
2023-04-15T11:53:22.265Z,1.97
2023-04-15T11:55:52.694Z,2.03
2023-04-15T11:58:22.035Z,2.10
2023-04-15T12:00:52.414Z,2.00
2023-04-15T12:03:25.169Z,1.40
2023-04-15T12:06:13.504Z,1.40
2023-04-15T12:08:57.174Z,1.87
2023-04-15T12:11:31.648Z,2.30
2023-04-15T12:14:00.881Z,2.60
2023-04-15T12:16:29.213Z,0.67
2023-04-15T12:18:58.917Z,2.57
2023-04-15T12:21:29.133Z,1.03
2023-04-15T12:23:57.865Z,0.93
2023-04-15T12:26:31.945Z,0.63
2023-04-15T12:29:02.510Z,0.77
2023-04-15T12:31:30.349Z,0.60
2023-04-15T12:33:58.569Z,0.40
2023-04-15T12:36:26.336Z,0.87
2023-04-15T12:38:54.074Z,0.77
2023-04-15T12:41:22.358Z,0.70
2023-04-15T12:43:51.522Z,1.80
2023-04-15T12:46:20.319Z,0.40
2023-04-15T12:48:48.626Z,0.50
2023-04-15T12:51:16.329Z,0.50
2023-04-15T12:53:44.000Z,0.60
2023-04-15T12:56:11.541Z,0.80
2023-04-15T12:58:39.141Z,0.60
2023-04-15T13:01:08.123Z,0.70
2023-04-15T13:03:35.965Z,0.87
2023-04-15T13:06:04.768Z,0.90
2023-04-15T13:08:32.449Z,0.77
2023-04-15T13:11:00.309Z,0.93
2023-04-15T13:13:28.297Z,0.50
2023-04-15T13:15:56.396Z,0.60
2023-04-15T13:18:25.744Z,1.60
2023-04-15T13:20:53.365Z,0.73
2023-04-15T13:23:21.154Z,0.50
2023-04-15T13:25:48.759Z,0.73
2023-04-15T13:28:16.487Z,1.60
2023-04-15T13:30:44.093Z,0.60
2023-04-15T13:33:11.680Z,1.80
2023-04-15T13:35:40.734Z,2.40
2023-04-15T13:38:08.337Z,1.47
2023-04-15T13:40:35.944Z,0.63
2023-04-15T13:43:04.065Z,0.73
2023-04-15T13:45:31.731Z,1.23
2023-04-15T13:47:59.401Z,0.93
2023-04-15T13:50:27.013Z,0.57
2023-04-15T13:52:55.943Z,0.83
2023-04-15T13:55:26.148Z,0.63
2023-04-15T13:57:54.379Z,1.50
2023-04-15T14:00:22.213Z,1.03
2023-04-15T14:02:50.069Z,0.87
2023-04-15T14:05:17.930Z,0.77
2023-04-15T14:07:45.669Z,1.33
2023-04-15T14:10:14.595Z,0.70
2023-04-15T14:12:42.320Z,0.80
2023-04-15T14:15:10.753Z,1.27
2023-04-15T14:17:38.691Z,0.90
2023-04-15T14:20:09.341Z,1.40
2023-04-15T14:22:36.944Z,0.60
2023-04-15T14:25:05.004Z,2.00
2023-04-15T14:27:33.905Z,0.80
2023-04-15T14:30:01.702Z,1.83
2023-04-15T14:32:29.367Z,2.80
2023-04-15T14:34:57.228Z,1.00
2023-04-15T14:37:24.975Z,1.73
2023-04-15T14:39:52.597Z,1.30
2023-04-15T14:42:20.226Z,2.03
2023-04-15T14:44:49.685Z,0.97
2023-04-15T14:47:17.445Z,1.63
2023-04-15T14:49:45.358Z,0.90
2023-04-15T14:52:13.426Z,1.30
2023-04-15T14:54:40.961Z,1.27
2023-04-15T14:57:09.088Z,1.27
2023-04-15T14:59:36.773Z,1.30
2023-04-15T15:02:05.987Z,1.47
2023-04-15T15:04:34.025Z,1.87
2023-04-15T15:07:01.817Z,1.67
2023-04-15T15:09:29.854Z,1.20
2023-04-15T15:11:57.801Z,2.13
2023-04-15T15:14:25.941Z,1.63
2023-04-15T15:16:53.859Z,2.20
2023-04-15T15:19:23.665Z,2.47
2023-04-15T15:21:51.438Z,1.70
2023-04-15T15:24:19.065Z,1.80
2023-04-15T15:26:46.835Z,1.70
2023-04-15T15:29:14.517Z,3.10
2023-04-15T15:31:42.322Z,2.77
2023-04-15T15:34:10.130Z,2.57
2023-04-15T15:36:39.256Z,3.10
2023-04-15T15:39:07.028Z,3.10
2023-04-15T15:41:34.861Z,3.60
2023-04-15T15:44:02.458Z,4.63
2023-04-15T15:46:31.518Z,3.37
2023-04-15T15:48:59.205Z,2.87
2023-04-15T15:51:27.520Z,3.83
2023-04-15T15:53:56.660Z,2.90
2023-04-15T15:56:24.320Z,2.83
2023-04-15T15:58:51.913Z,2.90
2023-04-15T16:01:19.730Z,4.10
2023-04-15T16:03:47.508Z,2.67
2023-04-15T16:06:15.131Z,2.30
2023-04-15T16:08:42.852Z,2.60
2023-04-15T16:11:11.776Z,2.63
2023-04-15T16:13:39.370Z,3.03
2023-04-15T16:16:07.558Z,3.00
2023-04-15T16:18:35.537Z,2.90
2023-04-15T16:21:03.153Z,3.10
2023-04-15T16:23:30.877Z,2.80
2023-04-15T16:25:58.600Z,2.57
2023-04-15T16:28:27.589Z,2.13
2023-04-15T16:30:55.936Z,2.17
2023-04-15T16:33:23.522Z,2.60
2023-04-15T16:35:51.990Z,2.33
2023-04-15T16:38:19.624Z,2.40
2023-04-15T16:40:48.261Z,2.37
2023-04-15T16:43:16.010Z,3.20
2023-04-15T16:45:50.665Z,2.00
2023-04-15T16:48:18.681Z,2.50
2023-04-15T16:50:46.344Z,2.27
2023-04-15T16:53:15.404Z,2.30
2023-04-15T16:55:43.001Z,2.00
2023-04-15T16:58:10.662Z,3.93
2023-04-15T17:00:38.313Z,2.20
2023-04-15T17:03:07.441Z,2.80
2023-04-15T17:05:35.282Z,2.60
2023-04-15T17:08:02.912Z,2.40
2023-04-15T17:10:31.706Z,2.70
2023-04-15T17:12:59.854Z,2.57
2023-04-15T17:15:27.882Z,2.70
2023-04-15T17:17:55.742Z,2.63
2023-04-15T17:20:24.852Z,2.90
2023-04-15T17:22:52.640Z,2.60
2023-04-15T17:25:20.814Z,3.03
2023-04-15T17:27:48.391Z,3.03
2023-04-15T17:30:16.154Z,2.50
2023-04-15T17:32:43.822Z,2.73
2023-04-15T17:35:11.572Z,3.07
2023-04-15T17:37:40.890Z,3.27
2023-04-15T17:40:09.482Z,3.00
2023-04-15T17:42:37.142Z,3.40
2023-04-15T17:45:05.669Z,5.67
2023-04-15T17:47:33.481Z,2.90
2023-04-15T17:50:01.104Z,3.70
2023-04-15T17:52:28.885Z,3.80
2023-04-15T17:54:57.853Z,3.37
2023-04-15T17:57:25.772Z,3.73
2023-04-15T17:59:53.474Z,3.70
2023-04-15T18:02:21.264Z,3.97
2023-04-15T18:04:49.065Z,4.10
2023-04-15T18:07:16.749Z,3.93
2023-04-15T18:09:44.381Z,4.20
2023-04-15T18:12:13.350Z,4.50
2023-04-15T18:14:40.918Z,4.87
2023-04-15T18:17:08.553Z,4.90
2023-04-15T18:19:36.156Z,4.80
2023-04-15T18:22:03.996Z,4.20
2023-04-15T18:24:31.633Z,4.93
2023-04-15T18:26:59.919Z,5.30
2023-04-15T18:29:30.820Z,4.80
2023-04-15T18:31:59.838Z,4.87
2023-04-15T18:34:27.573Z,4.80
2023-04-15T18:36:56.686Z,5.60
2023-04-15T18:39:24.293Z,5.33
2023-04-15T18:41:51.860Z,5.17
2023-04-15T18:44:19.488Z,4.90
2023-04-15T18:46:49.417Z,4.60
2023-04-15T18:49:17.020Z,4.83
2023-04-15T18:51:44.592Z,5.10
2023-04-15T18:54:12.198Z,4.77
2023-04-15T18:56:39.951Z,5.17
2023-04-15T18:59:18.772Z,4.93
2023-04-15T19:01:56.628Z,4.87
2023-04-15T19:04:24.322Z,4.93
2023-04-15T19:06:51.988Z,4.80
2023-04-15T19:09:19.862Z,5.03
2023-04-15T19:11:47.594Z,4.90
2023-04-15T19:14:15.191Z,5.23
2023-04-15T19:16:42.841Z,4.80
2023-04-15T19:19:14.328Z,5.27
2023-04-15T19:21:42.061Z,5.27
2023-04-15T19:24:09.672Z,4.90
2023-04-15T19:26:37.728Z,4.80
2023-04-15T19:29:05.489Z,5.00
2023-04-15T19:31:33.165Z,4.60
2023-04-15T19:34:00.905Z,4.73
2023-04-15T19:36:29.946Z,4.63
2023-04-15T19:38:57.545Z,4.40
2023-04-15T19:41:25.123Z,4.80
2023-04-15T19:43:52.765Z,4.10
2023-04-15T19:46:20.405Z,4.50
2023-04-15T19:48:48.046Z,4.57
2023-04-15T19:51:15.775Z,4.60
2023-04-15T19:53:44.636Z,4.53
2023-04-15T19:56:12.225Z,4.37
2023-04-15T19:58:39.760Z,4.33
2023-04-15T20:01:07.342Z,4.50
2023-04-15T20:03:35.127Z,4.50
2023-04-15T20:06:03.138Z,3.87
2023-04-15T20:08:30.704Z,3.83
2023-04-15T20:11:01.044Z,4.67
2023-04-15T20:13:28.761Z,4.73
2023-04-15T20:15:56.349Z,4.53
2023-04-15T20:18:24.004Z,4.00
2023-04-15T20:20:51.620Z,4.73
2023-04-15T20:23:19.332Z,4.50
2023-04-15T20:25:46.909Z,4.10
2023-04-15T20:28:17.905Z,4.33
2023-04-15T20:30:45.642Z,4.80
2023-04-15T20:33:13.173Z,4.30
2023-04-15T20:35:41.145Z,4.20
2023-04-15T20:38:08.759Z,4.13
2023-04-15T20:40:36.360Z,4.47
2023-04-15T20:43:03.966Z,4.60
2023-04-15T20:45:32.874Z,4.40
2023-04-15T20:48:00.567Z,4.83
2023-04-15T20:50:28.183Z,4.43
2023-04-15T20:52:55.816Z,4.50
2023-04-15T20:55:23.408Z,5.13
2023-04-15T20:57:51.170Z,5.27
2023-04-15T21:00:18.972Z,5.10
2023-04-15T21:02:48.019Z,4.30
2023-04-15T21:05:15.951Z,5.33
2023-04-15T21:07:43.622Z,5.00
2023-04-15T21:10:11.883Z,4.37
2023-04-15T21:12:41.020Z,4.63
2023-04-15T21:15:09.566Z,4.77
2023-04-15T21:17:37.189Z,6.37
2023-04-15T21:20:07.229Z,4.50
2023-04-15T21:22:34.898Z,4.87
2023-04-15T21:25:02.474Z,4.93
2023-04-15T21:27:30.050Z,5.10
2023-04-15T21:29:57.666Z,5.00
2023-04-15T21:32:25.448Z,4.77
2023-04-15T21:34:53.076Z,4.77
2023-04-15T21:37:21.985Z,4.83
2023-04-15T21:39:49.617Z,5.27
2023-04-15T21:42:17.263Z,5.30
2023-04-15T21:44:44.922Z,5.67
2023-04-15T21:47:12.739Z,5.10
2023-04-15T21:49:40.470Z,5.00
2023-04-15T21:52:08.067Z,4.87
2023-04-15T21:54:38.007Z,6.10
2023-04-15T21:57:05.624Z,5.80
2023-04-15T21:59:33.223Z,5.63
2023-04-15T22:02:01.112Z,5.50
2023-04-15T22:04:28.989Z,5.87
2023-04-15T22:07:01.483Z,6.07
2023-04-15T22:09:29.093Z,6.47
2023-04-15T22:11:59.280Z,6.70
2023-04-15T22:14:26.892Z,6.17
2023-04-15T22:16:54.656Z,6.80
2023-04-15T22:19:22.296Z,6.27
2023-04-15T22:21:50.662Z,7.73
2023-04-15T22:24:34.048Z,8.20
2023-04-15T22:27:07.413Z,7.43
2023-04-15T22:29:35.082Z,9.07
2023-04-15T22:32:02.728Z,8.50
2023-04-15T22:34:30.382Z,8.87
2023-04-15T22:36:58.018Z,8.90
2023-04-15T22:39:25.647Z,9.67
2023-04-15T22:41:53.247Z,9.90
2023-04-15T22:44:22.197Z,12.77
2023-04-15T22:46:51.750Z,10.53
2023-04-15T22:49:19.534Z,12.77
2023-04-15T22:51:47.102Z,12.20
2023-04-15T22:54:14.724Z,12.63
2023-04-15T22:56:42.389Z,11.60
2023-04-15T22:59:10.205Z,11.53
2023-04-15T23:01:39.421Z,12.57
2023-04-15T23:04:07.736Z,14.83
2023-04-15T23:06:36.374Z,11.17
2023-04-15T23:09:04.082Z,11.37
2023-04-15T23:11:31.751Z,9.30
2023-04-15T23:13:59.342Z,10.83
2023-04-15T23:16:26.913Z,11.47
2023-04-15T23:18:55.975Z,10.33
2023-04-15T23:21:25.962Z,10.93
2023-04-15T23:23:53.880Z,11.43
2023-04-15T23:26:21.540Z,9.57
2023-04-15T23:28:49.142Z,10.83
2023-04-15T23:31:16.750Z,10.23
2023-04-15T23:33:44.397Z,10.07
2023-04-15T23:36:13.337Z,10.27
2023-04-15T23:38:41.065Z,10.20
2023-04-15T23:41:09.105Z,10.50
2023-04-15T23:43:36.780Z,10.20
2023-04-15T23:46:04.516Z,11.03
2023-04-15T23:48:32.608Z,12.33
2023-04-15T23:51:00.482Z,10.97
2023-04-15T23:53:30.014Z,12.80
2023-04-15T23:55:57.857Z,10.97
2023-04-15T23:58:25.677Z,10.83
